Time;durP1;ratioP1;P1;durP2;ratioP2;P2;SDS_P1;SDS_P2;PMS_P1;PMS_P2;Temp;Humidity;BMP_temperature;BMP_pressure;BME280_temperature;BME280_humidity;BME280_pressure;Samples;Min_cycle;Max_cycle;Signal;HPM_P1;HPM_P2
2022/02/10 00:08:10;;;;;;;20.90;6.22;;;;;;;1.69;83.41;148094.89;1734317;81;21494;-60
2022/02/10 00:20:49;;;;;;;19.27;5.22;;;;;;;1.61;84.52;148072.98;1714989;80;21056;-65
2022/02/10 00:23:27;;;;;;;16.27;5.42;;;;;;;1.61;84.60;148074.23;1749498;80;21173;-65
2022/02/10 00:34:08;;;;;;;15.65;5.15;;;;;;;1.59;84.77;148069.09;1739605;82;21026;-66
2022/02/10 00:36:27;;;;;;;17.52;6.47;;;;;;;1.57;85.36;148063.94;1754536;80;21979;-67
2022/02/10 00:39:11;;;;;;;23.57;6.37;;;;;;;1.55;85.46;148060.11;1755462;80;21072;-66
2022/02/10 00:41:26;;;;;;;17.35;5.90;;;;;;;1.54;85.67;148056.22;1763147;80;21007;-65
2022/02/10 00:43:53;;;;;;;18.50;6.37;;;;;;;1.54;85.72;148056.22;1766510;79;21554;-65
2022/02/10 00:46:20;;;;;;;15.08;5.58;;;;;;;1.52;85.78;148051.06;1754602;80;21036;-60
2022/02/10 00:48:47;;;;;;;17.75;5.97;;;;;;;1.49;85.92;148043.34;1755164;79;21490;-60
2022/02/10 00:51:14;;;;;;;19.37;6.33;;;;;;;1.50;86.17;148045.91;1748624;80;21584;-60
2022/02/10 00:53:43;;;;;;;21.12;6.85;;;;;;;1.50;86.10;148045.91;1757034;79;21052;-61
2022/02/10 00:56:10;;;;;;;18.85;6.53;;;;;;;1.43;86.08;148029.16;1756600;80;21374;-66
2022/02/10 00:58:40;;;;;;;25.08;7.55;;;;;;;1.37;86.15;148014.97;1755521;80;21039;-66
2022/02/10 01:07:04;;;;;;;13.70;6.20;;;;;;;1.16;86.66;147960.86;1755509;80;20186;-65
2022/02/10 01:30:51;;;;;;;13.53;5.92;;;;;;;0.98;88.15;147917.06;1776854;80;21014;-65
2022/02/10 01:33:20;;;;;;;13.53;5.53;;;;;;;0.96;88.31;147911.91;1776657;80;21553;-61
2022/02/10 01:35:47;;;;;;;15.08;4.90;;;;;;;0.95;88.65;147909.33;1783108;79;21024;-61
2022/02/10 01:38:14;;;;;;;16.37;5.25;;;;;;;0.97;88.84;147914.48;1786558;80;20964;-61
2022/02/10 02:05:42;;;;;;;13.38;5.65;;;;;;;0.84;90.40;147883.59;1757667;80;21021;-65
2022/02/10 02:08:08;;;;;;;16.48;5.97;;;;;;;0.83;90.47;147881.03;1766328;81;21329;-66
2022/02/10 02:10:35;;;;;;;13.08;5.55;;;;;;;0.79;90.61;147870.73;1750069;81;21494;-60
2022/02/10 02:13:03;;;;;;;13.38;5.03;;;;;;;0.79;90.92;147870.73;1750983;81;21038;-61
2022/02/10 02:15:32;;;;;;;13.38;5.85;;;;;;;0.84;91.05;147883.59;1751775;80;21091;-62
2022/02/10 02:17:59;;;;;;;12.13;5.33;;;;;;;0.85;91.05;147886.17;1750219;80;21080;-65
2022/02/10 02:20:26;;;;;;;14.43;5.22;;;;;;;0.85;91.11;147886.17;1758798;80;21120;-60
2022/02/10 02:22:53;;;;;;;12.25;5.62;;;;;;;0.85;91.22;147886.17;1752694;81;21602;-60
2022/02/10 02:25:22;;;;;;;13.20;5.08;;;;;;;0.85;91.36;147886.17;1767516;80;21506;-60
2022/02/10 02:27:54;;;;;;;14.55;5.78;;;;;;;0.85;91.50;147884.86;1745527;81;21042;-61
2022/02/10 02:30:26;;;;;;;15.75;5.70;;;;;;;0.83;91.55;147881.03;1780771;80;21627;-61
2022/02/10 02:33:27;;;;;;;12.15;5.22;;;;;;;0.82;91.68;147878.45;1773171;80;21045;-60
2022/02/10 02:35:45;;;;;;;11.38;5.42;;;;;;;0.79;91.80;147870.73;1724365;81;21123;-62
2022/02/10 03:05:32;;;;;;;;;;;;;;;0.69;93.24;147846.25;1717525;81;21055;-65
2022/02/10 03:07:58;;;;;;;13.30;5.67;;;;;;;0.67;93.38;147839.81;1736773;81;20205;-62
2022/02/10 03:10:58;;;;;;;15.68;7.15;;;;;;;0.66;93.58;147837.23;1760870;81;21128;-61
2022/02/10 03:13:13;;;;;;;18.65;6.33;;;;;;;0.68;93.71;147842.38;1760499;81;21212;-60
2022/02/10 03:15:52;;;;;;;15.18;5.53;;;;;;;0.68;93.89;147842.38;1722327;82;22255;-61
2022/02/10 03:18:18;;;;;;;13.68;5.78;;;;;;;0.71;94.04;147851.41;1726878;82;21116;-66
2022/02/10 03:20:57;;;;;;;14.63;6.28;;;;;;;0.75;94.04;147859.12;1729396;82;21074;-66
2022/02/10 04:06:56;;;;;;;15.55;6.08;;;;;;;0.73;94.82;147855.25;1771538;80;21193;-60
2022/02/10 04:09:21;;;;;;;;;;;;;;;0.67;94.89;147841.11;1783136;79;20929;-60
2022/02/10 04:14:37;;;;;;;;;;;;;;;0.64;95.14;147832.08;1788144;79;21091;-65
2022/02/10 04:17:29;;;;;;;18.10;6.35;;;;;;;0.62;95.34;147826.94;1789762;78;20210;-65
2022/02/10 04:19:55;;;;;;;14.03;5.67;;;;;;;0.62;95.42;147828.20;1769752;79;21549;-60
2022/02/10 04:22:25;;;;;;;13.40;5.33;;;;;;;0.62;95.49;147826.94;1761516;80;21021;-60
2022/02/10 04:27:24;;;;;;;10.95;5.80;;;;;;;0.62;95.69;147828.20;1777585;80;20942;-64
2022/02/10 04:37:10;;;;;;;11.93;5.67;;;;;;;0.65;95.51;147834.66;1758539;80;21135;-66
2022/02/10 04:38:11;;;;;;;18.87;6.25;;;;;;;0.66;95.48;147837.23;1740732;80;21060;-65
2022/02/10 04:43:34;;;;;;;17.10;6.50;;;;;;;0.69;95.51;147844.95;1751449;80;21039;-60
2022/02/10 04:53:23;;;;;;;14.65;6.20;;;;;;;0.72;95.54;147852.67;1741918;80;21126;-60
2022/02/10 05:13:22;;;;;;;13.55;6.58;;;;;;;1.18;95.49;147966.02;1748861;80;26955;-60
2022/02/10 05:17:47;;;;;;;15.70;6.42;;;;;;;1.34;95.36;148005.98;1756114;80;21507;-60
2022/02/10 05:20:26;;;;;;;14.50;6.17;;;;;;;1.46;95.38;148035.62;1748892;81;21068;-60
2022/02/10 05:22:52;;;;;;;12.80;6.08;;;;;;;1.69;95.48;148094.89;1743596;81;21454;-60
2022/02/10 05:33:38;;;;;;;14.90;6.35;;;;;;;2.04;93.44;148179.94;1770747;80;21065;-60
2022/02/10 05:36:03;;;;;;;12.78;6.53;;;;;;;2.03;93.15;148177.36;1734254;81;21053;-66
2022/02/10 05:38:33;;;;;;;20.55;6.28;;;;;;;2.02;93.05;148174.78;1734790;81;21138;-66
2022/02/10 05:43:35;;;;;;;18.40;6.30;;;;;;;2.05;93.08;148183.83;1776186;80;21027;-60
2022/02/10 05:49:01;;;;;;;15.08;6.60;;;;;;;2.14;92.78;148205.75;1770475;80;21618;-66
2022/02/10 05:51:41;;;;;;;12.15;6.10;;;;;;;2.17;92.54;148213.47;1753625;80;21052;-61
2022/02/10 06:02:13;;;;;;;14.40;6.40;;;;;;;2.22;92.19;148226.36;1765313;81;21596;-62
2022/02/10 06:42:14;;;;;;;11.80;6.08;;;;;;;2.94;89.39;148404.33;1744172;81;21064;-66
2022/02/10 06:56:29;;;;;;;10.90;6.00;;;;;;;3.41;88.17;148523.03;1746890;80;21084;-68
2022/02/10 07:06:40;;;;;;;26.23;8.35;;;;;;;3.70;86.97;148594.03;1756656;80;21729;-61
2022/02/10 07:09:36;;;;;;;27.45;9.10;;;;;;;3.78;86.73;148613.41;1743531;80;21379;-62
2022/02/10 07:47:25;;;;;;;22.37;8.33;;;;;;;4.95;84.14;148905.28;1773241;78;21576;-61
2022/02/10 07:49:53;;;;;;;19.27;7.85;;;;;;;4.95;84.14;148905.28;1773892;78;21072;-67
2022/02/10 07:57:36;;;;;;;16.37;7.67;;;;;;;5.16;82.63;148959.56;1774164;79;21052;-60
2022/02/10 08:54:59;;;;;;;19.35;8.10;;;;;;;6.02;76.89;149172.95;1748243;80;21040;-61
2022/02/10 08:57:48;;;;;;;16.17;6.72;;;;;;;6.08;76.83;149188.45;1739865;80;21044;-62
2022/02/10 09:59:08;;;;;;;11.48;5.58;;;;;;;8.66;68.68;149833.22;1776025;79;21100;-62
2022/02/10 10:01:35;;;;;;;9.48;5.53;;;;;;;8.74;68.52;149852.66;1774146;78;21032;-62
2022/02/10 10:04:59;;;;;;;10.90;6.00;;;;;;;8.80;68.23;149866.88;1775135;79;21036;-60
2022/02/10 10:07:32;;;;;;;16.10;6.45;;;;;;;8.81;68.02;149870.80;1770758;79;21617;-61
2022/02/10 10:16:03;;;;;;;19.45;7.08;;;;;;;8.97;68.11;149909.69;1787666;78;21030;-60
2022/02/10 10:24:27;;;;;;;16.23;7.40;;;;;;;9.03;67.78;149925.23;1784158;78;21126;-62
2022/02/10 10:57:19;;;;;;;16.00;6.17;;;;;;;9.22;69.52;149971.91;1750436;80;20152;-61
2022/02/10 11:36:44;;;;;;;9.45;5.60;;;;;;;10.46;68.69;150283.19;1792576;78;21005;-69
2022/02/10 11:39:21;;;;;;;9.30;5.25;;;;;;;10.50;68.50;150293.61;1789782;78;21522;-69
2022/02/10 11:42:19;;;;;;;8.75;5.58;;;;;;;10.49;68.48;150290.97;1792527;78;21083;-59
2022/02/10 11:48:17;;;;;;;9.03;5.12;;;;;;;10.55;68.63;150305.25;1753278;80;21004;-60
2022/02/10 12:34:46;;;;;;;10.25;5.15;;;;;;;11.59;64.32;150566.17;1746615;80;21035;-69
2022/02/10 13:27:29;;;;;;;8.03;5.08;;;;;;;11.85;63.50;150631.16;1746015;80;21075;-69
2022/02/10 14:18:26;;;;;;;9.33;4.95;;;;;;;11.42;65.27;150524.66;1785672;78;21070;-69
2022/02/10 14:21:00;;;;;;;8.05;4.87;;;;;;;11.35;65.50;150505.17;1784838;79;21837;-69
2022/02/10 14:28:26;;;;;;;10.32;5.35;;;;;;;11.20;66.24;150467.53;1779326;78;21024;-59
2022/02/10 14:30:54;;;;;;;12.35;5.42;;;;;;;11.14;66.33;150454.52;1766329;78;21126;-60
2022/02/10 14:33:29;;;;;;;14.07;6.62;;;;;;;11.10;66.61;150444.14;1753840;80;21126;-62
2022/02/10 14:36:05;;;;;;;13.68;6.60;;;;;;;11.05;66.77;150431.16;1720676;81;21092;-62
2022/02/10 15:46:08;;;;;;;17.57;8.58;;;;;;;9.91;70.32;150144.34;1776966;78;21123;-68
2022/02/10 15:52:19;;;;;;;27.05;7.83;;;;;;;9.61;70.88;150070.41;1777179;78;21461;-69
2022/02/10 15:54:53;;;;;;;14.85;6.55;;;;;;;9.61;70.74;150070.41;1775752;78;21690;-61
2022/02/10 16:11:05;;;;;;;21.35;6.55;;;;;;;9.67;69.69;150086.00;1779672;78;21016;-70
2022/02/10 16:18:50;;;;;;;19.42;7.50;;;;;;;9.72;68.68;150098.95;1784104;78;21083;-69
2022/02/10 16:21:00;;;;;;;23.85;8.10;;;;;;;9.75;68.52;150106.73;1764307;78;21081;-70
2022/02/10 16:23:29;;;;;;;29.12;9.20;;;;;;;9.78;68.58;150113.23;1772693;78;21052;-70
2022/02/10 16:26:11;;;;;;;35.80;8.43;;;;;;;9.78;68.70;150113.23;1772151;78;21092;-59
2022/02/10 16:28:41;;;;;;;29.18;8.68;;;;;;;9.77;68.94;150109.33;1787623;78;21624;-59
2022/02/10 16:31:11;;;;;;;37.48;12.47;;;;;;;9.75;68.97;150106.73;1777647;78;21121;-60
2022/02/10 16:33:38;;;;;;;41.68;13.50;;;;;;;9.73;69.24;150101.55;1774228;78;21608;-60
2022/02/10 16:36:05;;;;;;;37.08;13.10;;;;;;;9.69;69.58;150091.19;1733828;80;21593;-69
2022/02/10 16:38:32;;;;;;;25.10;11.53;;;;;;;9.64;69.76;150078.22;1710814;81;21080;-69
2022/02/10 16:40:59;;;;;;;30.55;14.45;;;;;;;9.59;69.83;150065.22;1753179;81;21732;-70
2022/02/10 16:43:26;;;;;;;31.65;14.28;;;;;;;9.56;69.91;150058.77;1737242;80;21220;-70
2022/02/10 16:45:55;;;;;;;26.77;14.83;;;;;;;9.52;70.04;150048.41;1737486;80;21069;-69
2022/02/10 16:48:23;;;;;;;26.00;13.55;;;;;;;9.52;70.25;150047.09;1747013;80;21636;-70
2022/02/10 16:50:50;;;;;;;27.05;12.30;;;;;;;9.49;70.26;150039.31;1744452;80;21471;-60
2022/02/10 16:53:22;;;;;;;21.45;10.18;;;;;;;9.45;70.36;150031.53;1750497;80;21086;-60
2022/02/10 16:55:59;;;;;;;18.87;9.88;;;;;;;9.44;70.32;150028.95;1753508;80;21188;-59
2022/02/10 16:58:43;;;;;;;17.50;8.60;;;;;;;9.41;70.27;150021.17;1744751;80;21111;-59
2022/02/10 17:17:19;;;;;;;15.48;7.12;;;;;;;9.42;68.25;150023.77;1694761;81;21072;-69
2022/02/10 17:19:31;;;;;;;12.37;6.97;;;;;;;9.45;67.96;150031.53;1737552;80;21055;-59
2022/02/10 17:27:29;;;;;;;15.35;7.78;;;;;;;9.46;66.83;150034.13;1742258;80;21107;-60
2022/02/10 17:45:52;;;;;;;14.23;8.23;;;;;;;9.43;66.71;150026.36;1744801;80;21052;-70
2022/02/10 17:53:48;;;;;;;24.27;11.33;;;;;;;9.41;66.84;150021.17;1793023;78;21879;-70
2022/02/10 17:56:14;;;;;;;27.98;11.05;;;;;;;9.36;67.20;150008.17;1801028;78;21095;-69
2022/02/10 17:58:41;;;;;;;26.40;10.75;;;;;;;9.34;67.39;150002.98;1796637;78;21110;-70
2022/02/10 18:01:08;;;;;;;20.85;10.08;;;;;;;9.31;67.50;149995.22;1749262;79;21044;-71
2022/02/10 18:03:35;;;;;;;21.52;9.88;;;;;;;9.30;67.68;149992.63;1753370;80;21498;-70
2022/02/10 18:08:42;;;;;;;19.00;8.35;;;;;;;9.25;67.75;149979.67;1767924;79;20993;-61
2022/02/10 18:13:56;;;;;;;;;;;;;;;9.19;68.09;149964.12;1744892;80;21509;-60
2022/02/10 18:16:40;;;;;;;12.58;7.05;;;;;;;9.15;68.32;149956.31;1739704;80;21213;-61
2022/02/10 18:19:10;;;;;;;17.92;7.58;;;;;;;9.16;68.22;149958.91;1779623;78;21044;-60
2022/02/10 18:29:32;;;;;;;13.00;7.12;;;;;;;9.06;67.77;149933.00;1792004;78;21127;-60
2022/02/10 19:02:07;;;;;;;11.60;6.00;;;;;;;8.86;66.06;149883.73;1740393;81;20977;-69
2022/02/10 19:07:15;;;;;;;12.18;6.15;;;;;;;8.84;65.52;149877.23;1781357;79;21119;-69
2022/02/10 19:09:36;;;;;;;10.90;5.70;;;;;;;8.82;65.35;149873.38;1780922;79;21016;-69
2022/02/10 19:12:02;;;;;;;11.78;6.17;;;;;;;8.82;65.22;149873.38;1785365;79;21041;-70
2022/02/10 19:14:32;;;;;;;11.12;6.42;;;;;;;8.81;65.24;149870.80;1772232;79;22345;-70
2022/02/10 19:16:58;;;;;;;13.60;6.35;;;;;;;8.81;65.23;149869.47;1755675;79;21272;-70
2022/02/10 19:19:25;;;;;;;10.60;6.47;;;;;;;8.81;65.25;149869.47;1784684;79;21591;-69
2022/02/10 19:21:52;;;;;;;10.38;5.97;;;;;;;8.78;65.31;149863.03;1776230;79;21088;-60
2022/02/10 19:24:18;;;;;;;12.18;6.33;;;;;;;8.77;65.40;149860.44;1785964;79;21103;-60
2022/02/10 19:26:50;;;;;;;10.28;6.25;;;;;;;8.73;65.43;149850.03;1784526;79;21057;-60
2022/02/10 19:29:14;;;;;;;11.00;5.95;;;;;;;8.71;65.65;149844.84;1773506;78;21069;-63
2022/02/10 19:31:41;;;;;;;10.75;5.65;;;;;;;8.71;65.59;149844.84;1783455;78;21795;-71
2022/02/10 19:34:07;;;;;;;11.18;6.08;;;;;;;8.69;65.47;149839.67;1796661;78;21267;-69
2022/02/10 19:36:35;;;;;;;9.70;5.95;;;;;;;8.69;65.44;149839.67;1789169;78;21032;-69
2022/02/10 19:39:03;;;;;;;12.68;5.67;;;;;;;8.66;65.19;149831.91;1774099;78;20933;-59
2022/02/10 19:41:34;;;;;;;16.40;6.37;;;;;;;8.63;65.19;149824.13;1789229;78;21339;-59
2022/02/10 19:44:01;;;;;;;12.88;6.08;;;;;;;8.62;65.08;149821.55;1793355;78;21564;-60
2022/02/10 19:46:28;;;;;;;13.68;6.33;;;;;;;8.57;65.04;149811.19;1792943;78;21491;-59
2022/02/10 19:48:56;;;;;;;9.23;5.80;;;;;;;8.54;65.05;149803.42;1765245;80;21040;-69
2022/02/10 19:51:23;;;;;;;11.83;5.92;;;;;;;8.53;64.96;149800.83;1737099;81;21194;-60
2022/02/10 19:53:54;;;;;;;15.05;6.35;;;;;;;8.49;64.97;149790.38;1787009;78;21537;-60
2022/02/10 19:56:18;;;;;;;11.10;5.80;;;;;;;8.44;65.01;149777.44;1794168;78;21020;-60
2022/02/10 19:59:08;;;;;;;8.30;4.97;;;;;;;8.37;64.90;149760.58;1793182;78;21062;-60
2022/02/10 20:01:34;;;;;;;9.50;5.37;;;;;;;8.31;64.87;149746.38;1790082;78;21123;-68
2022/02/10 20:04:08;;;;;;;10.05;4.90;;;;;;;8.28;64.66;149738.55;1758061;79;21355;-70
2022/02/10 20:06:32;;;;;;;7.97;4.72;;;;;;;8.22;64.52;149723.02;1786975;78;21604;-60
2022/02/10 20:08:59;;;;;;;7.55;4.08;;;;;;;8.16;64.65;149707.48;1777518;78;21204;-69
2022/02/10 20:11:26;;;;;;;9.80;5.03;;;;;;;8.08;64.68;149688.05;1791705;78;21013;-69
2022/02/10 20:13:52;;;;;;;8.78;4.78;;;;;;;8.00;64.84;149668.61;1779717;79;21103;-70
2022/02/10 20:16:19;;;;;;;8.68;4.70;;;;;;;7.93;65.07;149650.50;1788100;78;21541;-60
2022/02/10 20:18:48;;;;;;;8.93;4.72;;;;;;;7.85;65.30;149629.80;1786841;78;21063;-67
2022/02/10 20:21:16;;;;;;;11.83;5.20;;;;;;;7.77;65.64;149609.05;1796687;78;21124;-60
2022/02/10 20:23:42;;;;;;;10.05;5.37;;;;;;;7.70;66.00;149592.20;1795348;79;21060;-59
2022/02/10 20:26:11;;;;;;;9.35;4.60;;;;;;;7.63;66.41;149574.09;1781738;78;21021;-60
2022/02/10 20:28:39;;;;;;;8.25;4.78;;;;;;;7.55;66.81;149554.66;1793910;78;21446;-62
2022/02/10 20:31:07;;;;;;;10.48;5.60;;;;;;;7.49;67.10;149540.41;1799593;78;21083;-69
2022/02/10 20:33:34;;;;;;;8.58;4.95;;;;;;;7.40;67.42;149517.12;1795310;78;21870;-61
2022/02/10 20:36:02;;;;;;;9.45;5.12;;;;;;;7.31;67.86;149495.11;1790672;78;20968;-60
2022/02/10 20:38:32;;;;;;;9.58;5.65;;;;;;;7.26;68.23;149482.17;1796322;78;21040;-70
2022/02/10 20:41:03;;;;;;;13.48;5.90;;;;;;;7.19;68.52;149464.06;1787645;78;21111;-69
2022/02/10 20:43:29;;;;;;;9.88;5.72;;;;;;;7.08;69.02;149438.16;1781904;78;21005;-68
2022/02/10 20:46:00;;;;;;;10.58;5.78;;;;;;;7.04;69.42;149427.81;1798931;78;21217;-69
2022/02/10 20:48:27;;;;;;;10.65;5.72;;;;;;;6.98;69.68;149412.30;1780445;79;21048;-69
2022/02/10 20:50:56;;;;;;;9.35;6.05;;;;;;;6.93;70.11;149399.31;1794409;78;21458;-69
2022/02/10 20:53:27;;;;;;;11.78;6.12;;;;;;;6.87;70.27;149386.37;1797294;78;21034;-60
2022/02/10 20:55:55;;;;;;;11.40;5.70;;;;;;;6.80;70.45;149368.28;1782247;78;21640;-61
2022/02/10 20:58:24;;;;;;;14.13;5.87;;;;;;;6.73;70.73;149350.13;1780267;78;21737;-68
2022/02/10 21:00:53;;;;;;;10.53;5.67;;;;;;;6.65;70.96;149329.45;1785990;79;21421;-69
2022/02/10 21:03:25;;;;;;;9.93;6.12;;;;;;;6.57;71.14;149311.34;1786051;79;21416;-69
2022/02/10 21:05:58;;;;;;;12.10;5.70;;;;;;;6.48;71.33;149288.03;1792506;78;21103;-68
2022/02/10 21:10:54;;;;;;;;;;;;;;;6.33;71.89;149249.27;1760995;78;21180;-69
2022/02/10 21:13:23;;;;;;;13.50;6.00;;;;;;;6.23;72.09;149224.69;1784605;78;20468;-70
2022/02/10 21:15:50;;;;;;;10.68;5.90;;;;;;;6.13;72.36;149200.11;1795214;78;21012;-69
2022/02/10 21:18:40;;;;;;;11.88;5.87;;;;;;;6.02;72.72;149174.22;1790161;78;21606;-69
2022/02/10 21:21:12;;;;;;;11.25;5.90;;;;;;;5.95;73.06;149156.08;1790761;78;21556;-68
2022/02/10 21:24:24;;;;;;;11.63;5.80;;;;;;;5.88;73.45;149138.00;1794520;78;21422;-60
2022/02/10 21:26:10;;;;;;;13.60;6.10;;;;;;;5.86;73.75;149132.81;1728251;81;21025;-60
2022/02/10 21:28:40;;;;;;;10.30;5.90;;;;;;;5.79;74.06;149114.69;1783397;78;20984;-59
2022/02/10 21:31:07;;;;;;;11.85;6.28;;;;;;;5.71;74.39;149095.28;1787842;78;21103;-60
2022/02/10 21:38:57;;;;;;;14.50;7.10;;;;;;;5.48;75.73;149037.14;1779438;79;21016;-61
2022/02/10 21:41:54;;;;;;;11.85;7.00;;;;;;;5.41;76.37;149020.31;1775616;79;21018;-68
2022/02/10 21:57:53;;;;;;;13.43;7.12;;;;;;;5.11;79.92;148946.64;1777933;79;21411;-61
2022/02/10 22:18:59;;;;;;;14.25;7.65;;;;;;;4.57;83.65;148812.28;1735243;79;21062;-60
2022/02/10 22:21:33;;;;;;;14.30;7.10;;;;;;;4.55;83.94;148807.13;1779852;79;21091;-59
2022/02/10 22:23:59;;;;;;;11.33;6.40;;;;;;;4.53;84.35;148801.97;1775387;79;21668;-61
2022/02/10 22:26:30;;;;;;;12.07;7.28;;;;;;;4.48;84.62;148787.75;1784812;79;21522;-60
2022/02/10 22:31:44;;;;;;;16.12;6.90;;;;;;;4.39;85.08;148765.78;1780038;79;21052;-59
2022/02/10 22:36:37;;;;;;;10.85;6.00;;;;;;;4.32;85.92;148747.72;1783019;79;21415;-59
2022/02/10 22:39:04;;;;;;;11.30;6.42;;;;;;;4.34;86.38;148752.87;1777814;79;21748;-59
2022/02/10 22:41:31;;;;;;;11.57;6.03;;;;;;;4.40;86.58;148768.38;1775220;78;21133;-59
2022/02/10 22:44:00;;;;;;;10.85;6.30;;;;;;;4.40;86.58;148768.38;1782543;79;21502;-61
2022/02/10 22:46:27;;;;;;;11.20;5.75;;;;;;;4.40;86.68;148769.63;1787269;79;21021;-60
2022/02/10 22:48:55;;;;;;;10.18;6.22;;;;;;;4.39;86.83;148765.78;1764948;79;21051;-59
2022/02/10 22:51:24;;;;;;;12.65;5.85;;;;;;;4.39;87.03;148765.78;1781096;79;21052;-60
2022/02/10 22:53:51;;;;;;;12.07;6.03;;;;;;;4.37;87.22;148761.89;1790970;79;21838;-60
2022/02/10 22:56:19;;;;;;;9.35;5.08;;;;;;;4.33;87.68;148750.30;1795737;79;21347;-59
2022/02/10 22:58:46;;;;;;;8.83;5.20;;;;;;;4.33;87.68;148750.30;1784099;79;21617;-59
2022/02/10 23:01:14;;;;;;;8.98;5.60;;;;;;;4.31;87.66;148746.41;1779075;79;21057;-60
2022/02/10 23:03:41;;;;;;;8.00;4.80;;;;;;;4.31;87.90;148746.41;1802757;79;21494;-61
2022/02/10 23:06:11;;;;;;;10.13;5.12;;;;;;;4.32;88.10;148747.72;1778552;79;21104;-59
2022/02/10 23:08:39;;;;;;;9.20;4.92;;;;;;;4.32;88.13;148747.72;1793668;79;21057;-69
2022/02/10 23:11:06;;;;;;;8.50;5.05;;;;;;;4.30;88.28;148743.81;1786830;79;21141;-68
2022/02/10 23:13:35;;;;;;;9.35;5.45;;;;;;;4.26;88.28;148734.77;1726452;81;21071;-68
2022/02/10 23:16:06;;;;;;;11.95;5.22;;;;;;;4.23;88.42;148727.03;1771214;79;21111;-60
2022/02/10 23:18:35;;;;;;;8.48;5.25;;;;;;;4.20;88.61;148719.28;1788040;79;21970;-60
2022/02/10 23:21:18;;;;;;;9.60;4.95;;;;;;;4.18;88.89;148714.13;1794722;79;21029;-60
2022/02/10 23:23:48;;;;;;;11.65;4.78;;;;;;;4.20;89.15;148719.28;1785801;79;21009;-61
2022/02/10 23:28:52;;;;;;;11.05;4.12;;;;;;;4.24;89.60;148728.34;1787396;79;21060;-60
2022/02/10 23:31:21;;;;;;;7.55;4.28;;;;;;;4.28;89.64;148739.94;1786954;79;21484;-59
2022/02/10 23:33:52;;;;;;;11.35;4.30;;;;;;;4.35;89.93;148755.47;1783893;79;21079;-60
2022/02/10 23:36:59;;;;;;;8.05;3.70;;;;;;;4.35;89.93;148755.47;1781455;79;22421;-60
2022/02/10 23:43:50;;;;;;;8.05;3.65;;;;;;;4.49;90.39;148791.59;1704213;80;21396;-60
2022/02/10 23:46:18;;;;;;;14.15;4.58;;;;;;;4.54;90.66;148804.55;1776331;79;21112;-60
2022/02/10 23:48:45;;;;;;;13.68;4.03;;;;;;;4.54;90.66;148804.55;1785516;78;21111;-60
2022/02/10 23:51:12;;;;;;;8.90;3.87;;;;;;;4.55;91.00;148805.81;1780766;79;21437;-60
2022/02/10 23:53:39;;;;;;;11.15;4.15;;;;;;;4.56;91.31;148809.72;1778922;79;21038;-60
2022/02/10 23:56:11;;;;;;;7.10;4.15;;;;;;;4.56;91.44;148809.72;1753636;81;21049;-60
